createdAt,value
2022-08-17T00:01:52.086Z,9.18
2022-08-17T00:04:20.545Z,9.68
2022-08-17T00:06:49.108Z,10.70
2022-08-17T00:09:18.373Z,9.88
2022-08-17T00:12:41.014Z,9.73
2022-08-17T00:14:36.261Z,10.50
2022-08-17T00:17:04.792Z,10.55
2022-08-17T00:19:32.989Z,11.52
2022-08-17T00:22:34.062Z,10.98
2022-08-17T00:24:50.667Z,10.93
2022-08-17T00:27:19.185Z,11.18
2022-08-17T00:29:46.242Z,10.68
2022-08-17T00:33:22.801Z,11.55
2022-08-17T00:35:05.206Z,10.48
2022-08-17T00:37:32.343Z,11.63
2022-08-17T00:39:59.593Z,11.15
2022-08-17T00:42:30.925Z,11.15
2022-08-17T00:44:58.646Z,11.45
2022-08-17T00:47:26.049Z,10.93
2022-08-17T00:49:53.152Z,11.20
2022-08-17T00:52:25.164Z,10.27
2022-08-17T00:54:55.505Z,10.63
2022-08-17T00:57:30.622Z,10.65
2022-08-17T01:00:06.426Z,11.20
2022-08-17T01:02:42.334Z,11.48
2022-08-17T01:07:58.933Z,10.60
2022-08-17T01:10:58.444Z,10.77
2022-08-17T01:13:39.767Z,11.02
2022-08-17T01:16:33.931Z,11.02
2022-08-17T01:19:25.381Z,10.90
2022-08-17T01:22:01.169Z,10.57
2022-08-17T01:24:28.763Z,11.40
2022-08-17T01:26:56.648Z,11.63
2022-08-17T01:29:26.015Z,11.63
2022-08-17T01:31:56.894Z,12.27
2022-08-17T01:34:25.117Z,11.95
2022-08-17T01:37:07.454Z,11.35
2022-08-17T01:39:38.068Z,11.43
2022-08-17T01:42:09.452Z,11.00
2022-08-17T01:44:37.425Z,11.50
2022-08-17T01:47:06.235Z,11.90
2022-08-17T01:49:33.544Z,11.70
2022-08-17T01:52:09.771Z,11.80
2022-08-17T01:54:39.297Z,11.43
2022-08-17T01:57:07.088Z,11.80
2022-08-17T01:59:34.264Z,11.15
2022-08-17T02:02:01.848Z,11.95
2022-08-17T02:04:28.788Z,11.98
2022-08-17T02:06:55.818Z,11.48
2022-08-17T02:09:25.812Z,11.30
2022-08-17T02:11:56.343Z,11.00
2022-08-17T02:14:24.847Z,11.00
2022-08-17T02:16:53.019Z,11.70
2022-08-17T02:19:20.681Z,10.82
2022-08-17T02:21:50.169Z,11.00
2022-08-17T02:25:00.385Z,11.60
2022-08-17T02:27:08.079Z,10.85
2022-08-17T02:29:35.351Z,11.40
2022-08-17T02:32:02.714Z,11.18
2022-08-17T02:34:30.186Z,10.32
2022-08-17T02:36:57.194Z,11.00
2022-08-17T02:39:24.282Z,11.40
2022-08-17T02:42:01.046Z,10.48
2022-08-17T02:47:09.924Z,9.50
2022-08-17T02:49:38.019Z,11.05
2022-08-17T02:52:06.787Z,10.05
2022-08-17T02:54:41.316Z,9.65
2022-08-17T02:57:10.549Z,9.93
2022-08-17T02:59:39.418Z,10.07
2022-08-17T03:02:08.802Z,9.90
2022-08-17T03:04:35.970Z,10.13
2022-08-17T03:07:04.522Z,10.57
2022-08-17T03:09:31.904Z,10.32
2022-08-17T03:12:07.471Z,9.80
2022-08-17T03:14:41.238Z,9.73
2022-08-17T03:17:10.231Z,9.48
2022-08-17T03:19:37.760Z,9.30
2022-08-17T03:22:36.035Z,9.45
2022-08-17T03:24:57.314Z,9.50
2022-08-17T03:27:24.281Z,9.30
2022-08-17T03:29:51.258Z,9.35
2022-08-17T03:32:20.783Z,9.45
2022-08-17T03:34:48.166Z,9.45
2022-08-17T03:37:15.281Z,9.27
2022-08-17T03:39:43.083Z,9.23
2022-08-17T03:42:32.015Z,9.05
2022-08-17T03:45:01.485Z,8.50
2022-08-17T03:47:49.803Z,8.98
2022-08-17T03:50:35.881Z,8.73
2022-08-17T03:53:35.048Z,8.70
2022-08-17T03:56:23.110Z,8.73
2022-08-17T03:58:50.661Z,9.32
2022-08-17T04:01:18.085Z,9.10
2022-08-17T04:03:45.125Z,8.70
2022-08-17T04:06:12.237Z,9.02
2022-08-17T04:08:39.203Z,8.38
2022-08-17T04:11:06.325Z,8.75
2022-08-17T04:13:33.328Z,8.40
2022-08-17T04:16:00.313Z,8.48
2022-08-17T04:18:27.343Z,8.75
2022-08-17T04:20:54.513Z,8.82
2022-08-17T04:23:28.366Z,9.23
2022-08-17T04:25:55.374Z,8.05
2022-08-17T04:28:22.487Z,8.20
2022-08-17T04:30:49.563Z,8.02
2022-08-17T04:33:22.021Z,8.02
2022-08-17T04:35:52.440Z,8.27
2022-08-17T04:38:26.308Z,8.77
2022-08-17T04:41:23.983Z,8.70
2022-08-17T04:43:55.978Z,8.23
2022-08-17T04:46:25.642Z,8.48
2022-08-17T04:48:55.294Z,8.23
2022-08-17T04:51:28.168Z,8.23
2022-08-17T04:54:05.324Z,8.18
2022-08-17T04:56:33.065Z,8.02
2022-08-17T04:59:02.872Z,8.75
2022-08-17T05:01:33.891Z,9.23
2022-08-17T05:04:34.246Z,8.50
2022-08-17T05:06:51.699Z,8.05
2022-08-17T05:09:19.086Z,8.02
2022-08-17T05:11:47.546Z,8.13
2022-08-17T05:14:15.099Z,9.27
2022-08-17T05:16:42.281Z,8.43
2022-08-17T05:19:09.437Z,8.60
2022-08-17T05:21:36.562Z,8.15
2022-08-17T05:24:08.031Z,8.07
2022-08-17T05:26:51.227Z,8.57
2022-08-17T05:29:19.029Z,7.88
2022-08-17T05:31:46.248Z,8.25
2022-08-17T05:34:13.435Z,7.43
2022-08-17T05:36:44.160Z,6.72
2022-08-17T05:39:16.977Z,7.82
2022-08-17T05:41:48.221Z,8.00
2022-08-17T05:44:16.331Z,7.88
2022-08-17T05:46:49.100Z,8.50
2022-08-17T05:49:23.565Z,8.32
2022-08-17T05:52:19.904Z,8.32
2022-08-17T05:54:47.372Z,8.17
2022-08-17T05:57:36.800Z,7.82
2022-08-17T06:00:30.348Z,7.78
2022-08-17T06:03:43.343Z,7.78
2022-08-17T06:06:13.401Z,7.63
2022-08-17T06:08:53.534Z,7.60
2022-08-17T06:11:45.981Z,7.25
2022-08-17T06:14:39.566Z,7.63
2022-08-17T06:17:12.914Z,7.57
2022-08-17T06:19:47.057Z,6.68
2022-08-17T06:22:16.770Z,7.82
2022-08-17T06:24:54.308Z,7.45
2022-08-17T06:27:30.678Z,7.72
2022-08-17T06:30:01.213Z,7.35
2022-08-17T06:32:31.580Z,7.10
2022-08-17T06:35:01.036Z,7.55
2022-08-17T06:38:01.701Z,6.72
2022-08-17T06:40:40.082Z,6.95
2022-08-17T06:43:19.554Z,6.43
2022-08-17T06:46:16.814Z,6.05
2022-08-17T06:48:52.536Z,6.05
2022-08-17T06:51:28.363Z,6.60
2022-08-17T06:54:14.303Z,6.35
2022-08-17T06:56:55.201Z,5.63
2022-08-17T06:59:36.304Z,5.68
2022-08-17T07:02:56.658Z,5.82
2022-08-17T07:05:40.601Z,5.90
2022-08-17T07:08:18.703Z,5.75
2022-08-17T07:10:45.737Z,5.50
2022-08-17T07:13:38.486Z,5.63
2022-08-17T07:16:34.475Z,5.13
2022-08-17T07:19:01.635Z,5.75
2022-08-17T07:21:52.574Z,5.22
2022-08-17T07:25:04.326Z,5.25
2022-08-17T07:27:56.081Z,5.00
2022-08-17T07:31:03.217Z,5.78
2022-08-17T07:33:45.548Z,4.70
2022-08-17T07:36:30.238Z,5.03
2022-08-17T07:39:07.875Z,5.05
2022-08-17T07:41:58.895Z,5.88
2022-08-17T07:45:01.862Z,5.65
2022-08-17T07:47:56.400Z,4.82
2022-08-17T07:50:36.278Z,5.28
2022-08-17T07:53:53.288Z,5.03
2022-08-17T07:56:41.833Z,4.72
2022-08-17T07:59:47.891Z,4.65
2022-08-17T08:02:37.002Z,4.90
2022-08-17T08:05:44.303Z,5.18
2022-08-17T08:08:26.830Z,5.22
2022-08-17T08:11:28.634Z,5.32
2022-08-17T08:13:55.767Z,4.75
2022-08-17T08:16:29.822Z,5.32
2022-08-17T08:19:00.307Z,5.53
2022-08-17T08:21:43.528Z,5.53
2022-08-17T08:24:51.818Z,4.57
2022-08-17T08:27:37.798Z,4.95
2022-08-17T08:30:05.479Z,5.00
2022-08-17T08:32:48.152Z,4.85
2022-08-17T08:35:33.915Z,4.93
2022-08-17T08:38:24.147Z,5.10
2022-08-17T08:41:03.549Z,4.35
2022-08-17T08:43:52.809Z,5.22
2022-08-17T08:47:01.943Z,4.97
2022-08-17T08:50:04.528Z,4.32
2022-08-17T08:52:56.087Z,4.60
2022-08-17T08:55:53.993Z,5.28
2022-08-17T08:58:48.532Z,4.90
2022-08-17T09:01:32.688Z,4.45
2022-08-17T09:04:25.234Z,4.63
2022-08-17T09:07:11.187Z,4.43
2022-08-17T09:10:05.198Z,4.97
2022-08-17T09:12:44.274Z,4.78
2022-08-17T09:15:27.747Z,4.95
2022-08-17T09:18:59.844Z,4.97
2022-08-17T09:21:10.400Z,5.07
2022-08-17T09:24:06.482Z,4.45
2022-08-17T09:26:59.581Z,4.75
2022-08-17T09:29:32.538Z,4.75
2022-08-17T09:32:03.963Z,4.50
2022-08-17T09:34:43.622Z,4.53
2022-08-17T09:37:18.512Z,4.82
2022-08-17T09:39:55.708Z,5.07
2022-08-17T09:42:47.758Z,5.43
2022-08-17T09:45:23.814Z,4.80
2022-08-17T09:47:59.960Z,4.40
2022-08-17T09:51:04.623Z,5.32
2022-08-17T09:53:38.185Z,4.60
2022-08-17T09:56:14.078Z,4.82
2022-08-17T09:59:14.016Z,4.82
2022-08-17T10:01:59.859Z,4.53
2022-08-17T10:04:30.744Z,4.37
2022-08-17T10:07:02.372Z,5.00
2022-08-17T10:09:40.269Z,4.45
2022-08-17T10:12:29.765Z,4.68
2022-08-17T10:15:07.946Z,4.18
2022-08-17T10:17:55.702Z,5.22
2022-08-17T10:20:34.059Z,4.88
2022-08-17T10:23:31.026Z,4.55
2022-08-17T10:26:18.963Z,4.72
2022-08-17T10:28:49.633Z,4.60
2022-08-17T10:31:42.711Z,4.78
2022-08-17T10:34:18.976Z,4.70
2022-08-17T10:39:36.044Z,4.88
2022-08-17T10:42:32.745Z,5.05
2022-08-17T10:45:15.504Z,5.43
2022-08-17T10:48:07.340Z,5.38
2022-08-17T10:50:57.673Z,5.28
2022-08-17T10:53:48.778Z,5.03
2022-08-17T10:56:17.554Z,5.55
2022-08-17T10:58:56.469Z,5.55
2022-08-17T11:01:32.810Z,6.05
2022-08-17T11:04:21.609Z,6.07
2022-08-17T11:07:02.147Z,6.28
2022-08-17T11:09:47.561Z,6.28
2022-08-17T11:12:51.925Z,6.60
2022-08-17T11:15:41.467Z,5.97
2022-08-17T11:18:22.734Z,6.22
2022-08-17T11:21:01.443Z,5.45
2022-08-17T11:23:46.540Z,6.15
2022-08-17T11:26:28.275Z,6.70
2022-08-17T11:29:00.134Z,6.38
2022-08-17T11:31:39.707Z,6.35
2022-08-17T11:34:23.234Z,6.15
2022-08-17T11:37:00.578Z,5.97
2022-08-17T11:39:49.174Z,6.95
2022-08-17T11:42:34.561Z,6.28
2022-08-17T11:45:33.265Z,6.53
2022-08-17T11:48:34.397Z,6.63
2022-08-17T11:51:33.875Z,7.78
2022-08-17T11:54:31.179Z,7.38
2022-08-17T11:56:51.886Z,6.93
2022-08-17T11:59:33.935Z,7.75
2022-08-17T12:02:26.421Z,9.77
2022-08-17T12:05:17.053Z,7.13
2022-08-17T12:07:49.449Z,7.43
2022-08-17T12:10:21.620Z,7.95
2022-08-17T12:12:53.381Z,7.18
2022-08-17T12:15:30.194Z,6.30
2022-08-17T12:17:57.930Z,7.43
2022-08-17T12:20:31.191Z,7.03
2022-08-17T12:23:17.769Z,9.50
2022-08-17T12:25:49.449Z,8.38
2022-08-17T12:28:33.801Z,8.68
2022-08-17T12:31:06.399Z,8.55
2022-08-17T12:33:36.874Z,9.20
2022-08-17T12:36:07.575Z,8.20
2022-08-17T12:38:36.982Z,8.95
2022-08-17T12:41:24.991Z,8.05
2022-08-17T12:44:28.266Z,7.88
2022-08-17T12:47:07.839Z,7.60
2022-08-17T12:49:42.296Z,7.78
2022-08-17T12:52:12.443Z,8.57
2022-08-17T12:54:48.683Z,8.88
2022-08-17T12:57:20.834Z,8.82
2022-08-17T12:59:53.507Z,9.30
2022-08-17T13:02:40.098Z,9.38
2022-08-17T13:05:14.681Z,9.30
2022-08-17T13:07:42.761Z,8.73
2022-08-17T13:10:36.555Z,7.90
2022-08-17T13:13:17.766Z,7.38
2022-08-17T13:15:55.419Z,7.53
2022-08-17T13:18:36.497Z,9.27
2022-08-17T13:21:03.852Z,11.82
2022-08-17T13:23:32.258Z,10.82
2022-08-17T13:26:09.487Z,10.10
2022-08-17T13:28:37.493Z,10.00
2022-08-17T13:31:28.075Z,9.45
2022-08-17T13:34:15.222Z,8.98
2022-08-17T13:36:43.744Z,8.75
2022-08-17T13:39:21.709Z,8.65
2022-08-17T13:44:37.827Z,8.68
2022-08-17T13:47:16.201Z,7.97
2022-08-17T13:49:49.048Z,8.65
2022-08-17T13:52:37.915Z,7.82
2022-08-17T13:55:15.982Z,8.27
2022-08-17T13:57:47.479Z,7.78
2022-08-17T14:00:35.581Z,7.75
2022-08-17T14:03:04.754Z,8.57
2022-08-17T14:05:38.138Z,8.77
2022-08-17T14:08:07.289Z,7.75
2022-08-17T14:10:36.618Z,7.93
2022-08-17T14:13:05.301Z,7.63
2022-08-17T14:15:56.364Z,7.72
2022-08-17T14:18:42.035Z,7.40
2022-08-17T14:21:09.630Z,7.28
2022-08-17T14:23:37.710Z,7.20
2022-08-17T14:26:05.444Z,6.40
2022-08-17T14:28:32.605Z,6.25
2022-08-17T14:31:01.372Z,6.57
2022-08-17T14:33:29.242Z,6.72
2022-08-17T14:35:57.700Z,6.90
2022-08-17T14:38:24.982Z,5.90
2022-08-17T14:40:52.693Z,5.03
2022-08-17T14:43:20.589Z,5.78
2022-08-17T14:45:47.938Z,5.80
2022-08-17T14:48:14.961Z,6.00
2022-08-17T14:50:43.166Z,5.82
2022-08-17T14:53:13.774Z,5.65
2022-08-17T14:55:40.849Z,5.72
2022-08-17T14:58:09.229Z,6.15
2022-08-17T15:00:36.975Z,5.97
2022-08-17T15:03:04.424Z,5.55
2022-08-17T15:05:35.507Z,6.25
2022-08-17T15:08:03.779Z,6.70
2022-08-17T15:10:31.253Z,6.25
2022-08-17T15:12:58.846Z,6.40
2022-08-17T15:15:26.152Z,6.45
2022-08-17T15:17:53.333Z,6.63
2022-08-17T15:20:26.426Z,6.22
2022-08-17T15:22:57.474Z,6.13
2022-08-17T15:25:29.899Z,6.93
2022-08-17T15:27:56.912Z,6.82
2022-08-17T15:30:26.023Z,7.20
2022-08-17T15:32:55.358Z,7.10
2022-08-17T15:35:27.536Z,6.53
2022-08-17T15:38:11.203Z,6.75
2022-08-17T15:40:42.635Z,7.38
2022-08-17T15:43:15.601Z,7.35
2022-08-17T15:45:43.323Z,7.28
2022-08-17T15:48:10.793Z,6.40
2022-08-17T15:50:38.067Z,6.75
2022-08-17T15:53:05.216Z,6.53
2022-08-17T15:55:33.238Z,6.38
2022-08-17T15:58:00.598Z,6.95
2022-08-17T16:00:29.482Z,6.25
2022-08-17T16:03:45.010Z,7.00
2022-08-17T16:05:47.103Z,7.07
2022-08-17T16:08:20.070Z,7.10
2022-08-17T16:10:50.006Z,7.05
2022-08-17T16:13:18.353Z,6.70
2022-08-17T16:15:53.036Z,7.50
2022-08-17T16:18:27.466Z,7.30
2022-08-17T16:20:55.163Z,7.47
2022-08-17T16:23:23.220Z,8.48
2022-08-17T16:25:53.743Z,6.65
2022-08-17T16:28:23.356Z,7.82
2022-08-17T16:31:03.472Z,6.45
2022-08-17T16:33:30.486Z,6.90
2022-08-17T16:35:57.641Z,6.32
2022-08-17T16:38:24.714Z,7.00
2022-08-17T16:40:51.708Z,6.80
2022-08-17T16:43:18.749Z,7.20
2022-08-17T16:45:51.828Z,6.45
2022-08-17T16:48:19.973Z,6.78
2022-08-17T16:51:03.169Z,6.78
2022-08-17T16:53:31.898Z,7.18
2022-08-17T16:55:58.975Z,6.72
2022-08-17T16:58:26.544Z,6.97
2022-08-17T17:00:54.495Z,6.53
2022-08-17T17:03:26.177Z,6.40
2022-08-17T17:06:06.402Z,6.93
2022-08-17T17:08:48.978Z,7.40
2022-08-17T17:11:25.335Z,7.30
2022-08-17T17:14:09.371Z,9.65
2022-08-17T17:16:57.782Z,9.68
2022-08-17T17:19:45.774Z,10.63
2022-08-17T17:22:25.765Z,11.15
2022-08-17T17:25:08.967Z,11.00
2022-08-17T17:27:58.936Z,11.45
2022-08-17T17:30:38.350Z,10.85
2022-08-17T17:33:11.532Z,11.95
2022-08-17T17:35:50.842Z,11.65
2022-08-17T17:38:29.264Z,10.73
2022-08-17T17:41:09.411Z,10.48
2022-08-17T17:43:40.386Z,9.57
2022-08-17T17:46:29.278Z,10.38
2022-08-17T17:48:57.908Z,9.15
2022-08-17T17:52:06.778Z,9.40
2022-08-17T17:55:00.182Z,8.27
2022-08-17T17:57:27.138Z,7.85
2022-08-17T18:00:02.993Z,8.05
2022-08-17T18:03:17.300Z,8.07
2022-08-17T18:06:03.034Z,8.40
2022-08-17T18:08:44.907Z,8.32
2022-08-17T18:11:25.117Z,7.88
2022-08-17T18:14:17.610Z,8.25
2022-08-17T18:16:45.462Z,7.55
2022-08-17T18:19:14.459Z,8.02
2022-08-17T18:21:45.965Z,9.10
2022-08-17T18:24:13.702Z,8.15
2022-08-17T18:26:44.760Z,8.38
2022-08-17T18:29:42.852Z,9.52
2022-08-17T18:32:22.791Z,9.73
2022-08-17T18:34:57.690Z,8.93
2022-08-17T18:37:43.143Z,8.68
2022-08-17T18:40:23.737Z,9.32
2022-08-17T18:43:05.860Z,8.48
2022-08-17T18:45:39.088Z,8.93
2022-08-17T18:48:27.911Z,9.02
2022-08-17T18:51:01.725Z,8.85
2022-08-17T18:53:42.725Z,8.88
2022-08-17T18:56:30.769Z,8.50
2022-08-17T18:59:44.875Z,7.72
2022-08-17T19:02:20.669Z,8.48
2022-08-17T19:05:26.622Z,8.50
2022-08-17T19:07:54.625Z,8.60
2022-08-17T19:10:28.881Z,9.05
2022-08-17T19:13:11.337Z,9.20
2022-08-17T19:16:12.070Z,9.30
2022-08-17T19:19:07.934Z,10.45
2022-08-17T19:21:43.127Z,10.13
2022-08-17T19:24:19.855Z,11.20
2022-08-17T19:26:55.457Z,10.18
2022-08-17T19:29:35.420Z,11.00
2022-08-17T19:32:03.633Z,10.90
2022-08-17T19:34:34.492Z,10.98
2022-08-17T19:37:09.699Z,11.00
2022-08-17T19:39:58.023Z,10.13
2022-08-17T19:42:34.097Z,10.35
2022-08-17T19:45:17.914Z,9.55
2022-08-17T19:48:01.665Z,9.38
2022-08-17T19:51:15.495Z,8.82
2022-08-17T19:54:11.132Z,8.82
2022-08-17T19:57:01.710Z,9.13
2022-08-17T19:59:52.278Z,7.72
2022-08-17T20:02:29.305Z,8.35
2022-08-17T20:05:15.514Z,8.25
2022-08-17T20:08:14.470Z,8.30
2022-08-17T20:11:18.376Z,7.50
2022-08-17T20:14:11.974Z,7.30
2022-08-17T20:16:39.352Z,7.88
2022-08-17T20:19:23.029Z,7.60
2022-08-17T20:22:09.814Z,7.60
2022-08-17T20:24:44.125Z,8.05
2022-08-17T20:27:40.131Z,7.43
2022-08-17T20:30:29.887Z,7.97
2022-08-17T20:32:58.485Z,7.68
2022-08-17T20:35:34.757Z,7.80
2022-08-17T20:38:11.142Z,8.35
2022-08-17T20:41:01.310Z,7.78
2022-08-17T20:43:34.450Z,7.82
2022-08-17T20:46:04.487Z,7.65
2022-08-17T20:48:39.854Z,8.15
2022-08-17T20:51:16.567Z,7.35
2022-08-17T20:53:49.857Z,7.70
2022-08-17T20:56:44.662Z,7.80
2022-08-17T20:59:27.692Z,7.25
2022-08-17T21:02:17.448Z,7.22
2022-08-17T21:04:56.945Z,7.00
2022-08-17T21:07:43.224Z,7.55
2022-08-17T21:10:34.057Z,7.20
2022-08-17T21:13:16.109Z,7.38
2022-08-17T21:15:57.597Z,7.22
2022-08-17T21:18:42.625Z,7.35
2022-08-17T21:21:17.252Z,7.55
2022-08-17T21:24:01.373Z,7.32
2022-08-17T21:26:50.357Z,7.45
2022-08-17T21:29:30.994Z,7.80
2022-08-17T21:31:59.723Z,7.53
2022-08-17T21:34:37.991Z,7.60
2022-08-17T21:37:20.293Z,7.75
2022-08-17T21:39:53.142Z,7.30
2022-08-17T21:42:29.180Z,8.55
2022-08-17T21:45:08.068Z,7.82
2022-08-17T21:47:35.190Z,7.65
2022-08-17T21:50:21.200Z,7.90
2022-08-17T21:52:50.196Z,7.53
2022-08-17T21:55:28.326Z,8.32
2022-08-17T21:58:14.054Z,8.13
2022-08-17T22:00:44.768Z,7.68
2022-08-17T22:03:23.837Z,8.20
2022-08-17T22:05:51.621Z,8.15
2022-08-17T22:08:25.008Z,8.02
2022-08-17T22:11:01.478Z,7.55
2022-08-17T22:13:29.845Z,8.43
2022-08-17T22:16:15.585Z,7.50
2022-08-17T22:18:53.672Z,8.27
2022-08-17T22:21:22.565Z,8.20
2022-08-17T22:24:15.422Z,8.95
2022-08-17T22:27:00.298Z,7.85
2022-08-17T22:29:53.276Z,8.13
2022-08-17T22:32:45.655Z,8.70
2022-08-17T22:35:25.058Z,8.90
2022-08-17T22:37:52.732Z,8.00
2022-08-17T22:40:32.019Z,8.45
2022-08-17T22:43:03.532Z,9.00
2022-08-17T22:45:31.329Z,8.27
2022-08-17T22:48:02.210Z,8.00
2022-08-17T22:50:33.119Z,8.57
2022-08-17T22:53:22.724Z,9.15
2022-08-17T22:56:11.487Z,8.95
2022-08-17T22:59:10.886Z,8.80
2022-08-17T23:01:39.261Z,8.05
2022-08-17T23:04:29.586Z,8.77
2022-08-17T23:06:56.736Z,8.45
2022-08-17T23:09:23.818Z,9.10
2022-08-17T23:11:57.558Z,8.70
2022-08-17T23:14:31.474Z,8.00
2022-08-17T23:16:59.476Z,9.52
2022-08-17T23:19:28.443Z,8.13
2022-08-17T23:21:56.561Z,8.20
2022-08-17T23:24:27.162Z,8.65
2022-08-17T23:26:57.260Z,9.50
2022-08-17T23:29:25.832Z,9.55
2022-08-17T23:31:53.106Z,8.95
2022-08-17T23:34:20.192Z,8.48
2022-08-17T23:36:52.946Z,8.43
2022-08-17T23:39:24.370Z,9.73
2022-08-17T23:41:57.261Z,8.02
2022-08-17T23:44:24.339Z,8.13
2022-08-17T23:46:52.108Z,8.15
2022-08-17T23:49:19.534Z,7.97
2022-08-17T23:51:48.879Z,7.72
2022-08-17T23:54:24.281Z,8.10
2022-08-17T23:56:51.434Z,8.38
2022-08-17T23:59:22.631Z,7.90
